createdAt,value
2018-06-19T00:00:57.460Z,100863.31
2018-06-19T00:02:03.694Z,100858.80
2018-06-19T00:03:09.918Z,100863.67
2018-06-19T00:04:16.174Z,100855.07
2018-06-19T00:05:22.221Z,100859.70
2018-06-19T00:06:29.321Z,100857.58
2018-06-19T00:07:35.599Z,100856.95
2018-06-19T00:08:41.829Z,100856.93
2018-06-19T00:09:48.080Z,100857.30
2018-06-19T00:10:54.334Z,100854.63
2018-06-19T00:12:00.203Z,100857.65
2018-06-19T00:13:06.204Z,100857.15
2018-06-19T00:14:12.504Z,100856.19
2018-06-19T00:15:18.763Z,100849.81
2018-06-19T00:16:24.687Z,100859.03
2018-06-19T00:17:30.660Z,100850.41
2018-06-19T00:18:36.962Z,100853.97
2018-06-19T00:19:42.849Z,100853.66
2018-06-19T00:20:49.128Z,100851.83
2018-06-19T00:21:55.884Z,100855.77
2018-06-19T00:23:01.464Z,100855.83
2018-06-19T00:24:07.390Z,100853.03
2018-06-19T00:25:13.624Z,100858.30
2018-06-19T00:26:19.138Z,100857.44
2018-06-19T00:27:25.053Z,100845.26
2018-06-19T00:28:31.309Z,100855.22
2018-06-19T00:29:37.581Z,100854.28
2018-06-19T00:30:43.817Z,100850.94
2018-06-19T00:31:50.036Z,100850.58
2018-06-19T00:32:56.262Z,100860.25
2018-06-19T00:34:06.085Z,100853.42
2018-06-19T00:35:12.311Z,100852.36
2018-06-19T00:36:18.563Z,100850.00
2018-06-19T00:37:24.779Z,100852.39
2018-06-19T00:38:31.903Z,100851.69
2018-06-19T00:39:38.152Z,100859.86
2018-06-19T00:40:44.399Z,100855.05
2018-06-19T00:41:50.669Z,100857.08
2018-06-19T00:42:56.934Z,100849.33
2018-06-19T00:44:03.510Z,100852.55
2018-06-19T00:45:09.783Z,100848.24
2018-06-19T00:46:15.649Z,100849.88
2018-06-19T00:47:21.908Z,100845.99
2018-06-19T00:48:28.141Z,100852.53
2018-06-19T00:49:34.403Z,100855.67
2018-06-19T00:50:40.633Z,100855.12
2018-06-19T00:51:46.581Z,100851.63
2018-06-19T00:52:52.826Z,100857.70
2018-06-19T00:53:59.054Z,100856.89
2018-06-19T00:55:04.948Z,100859.81
2018-06-19T00:56:22.153Z,100858.01
2018-06-19T00:57:28.138Z,100860.67
2018-06-19T00:58:34.583Z,100858.70
2018-06-19T00:59:40.854Z,100857.64
2018-06-19T01:00:47.080Z,100857.64
2018-06-19T01:01:53.369Z,100859.30
2018-06-19T01:02:59.288Z,100854.55
2018-06-19T01:04:05.490Z,100853.77
2018-06-19T01:05:11.730Z,100859.70
2018-06-19T01:06:18.856Z,100851.28
2018-06-19T01:07:25.257Z,100855.73
2018-06-19T01:08:31.207Z,100863.70
2018-06-19T01:09:37.445Z,100856.80
2018-06-19T01:10:43.677Z,100860.95
2018-06-19T01:11:49.887Z,100853.67
2018-06-19T01:12:56.097Z,100859.92
2018-06-19T01:14:02.355Z,100861.00
2018-06-19T01:15:08.614Z,100859.66
2018-06-19T01:16:14.849Z,100857.13
2018-06-19T01:17:21.117Z,100862.27
2018-06-19T01:18:27.391Z,100854.68
2018-06-19T01:19:34.570Z,100856.74
2018-06-19T01:20:40.786Z,100857.64
2018-06-19T01:21:47.003Z,100858.29
2018-06-19T01:22:53.240Z,100859.19
2018-06-19T01:23:59.507Z,100856.11
2018-06-19T01:25:05.805Z,100852.59
2018-06-19T01:26:12.009Z,100856.16
2018-06-19T01:27:18.224Z,100855.22
2018-06-19T01:28:24.085Z,100854.45
2018-06-19T01:29:31.211Z,100857.23
2018-06-19T01:30:38.228Z,100856.72
2018-06-19T01:31:44.459Z,100852.39
2018-06-19T01:32:50.705Z,100856.59
2018-06-19T01:33:56.564Z,100854.44
2018-06-19T01:35:03.029Z,100856.45
2018-06-19T01:36:09.271Z,100857.39
2018-06-19T01:37:15.509Z,100856.80
2018-06-19T01:38:21.477Z,100853.67
2018-06-19T01:39:27.416Z,100856.48
2018-06-19T01:40:33.763Z,100857.45
2018-06-19T01:41:40.039Z,100854.83
2018-06-19T01:42:45.986Z,100846.81
2018-06-19T01:43:52.197Z,100851.78
2018-06-19T01:44:58.172Z,100855.27
2018-06-19T01:46:04.414Z,100859.38
2018-06-19T01:47:10.401Z,100857.27
2018-06-19T01:48:16.636Z,100855.38
2018-06-19T01:49:22.855Z,100860.41
2018-06-19T01:50:29.186Z,100857.23
2018-06-19T01:51:35.129Z,100856.54
2018-06-19T01:52:41.383Z,100851.99
2018-06-19T01:53:47.618Z,100856.58
2018-06-19T01:54:53.858Z,100852.59
2018-06-19T01:56:00.113Z,100853.84
2018-06-19T01:57:06.328Z,100856.21
2018-06-19T01:58:12.624Z,100851.40
2018-06-19T01:59:18.868Z,100849.05
2018-06-19T02:00:25.136Z,100848.41
2018-06-19T02:01:31.348Z,100846.86
2018-06-19T02:02:38.263Z,100843.77
2018-06-19T02:03:44.231Z,100845.91
2018-06-19T02:04:50.733Z,100845.80
2018-06-19T02:05:57.891Z,100842.41
2018-06-19T02:07:03.537Z,100847.02
2018-06-19T02:08:09.749Z,100850.35
2018-06-19T02:09:15.980Z,100835.69
2018-06-19T02:10:22.238Z,100841.19
2018-06-19T02:11:28.472Z,100842.22
2018-06-19T02:12:34.764Z,100839.27
2018-06-19T02:13:40.995Z,100840.54
2018-06-19T02:14:47.235Z,100837.45
2018-06-19T02:15:53.480Z,100844.86
2018-06-19T02:16:59.716Z,100844.61
2018-06-19T02:18:05.964Z,100842.94
2018-06-19T02:19:12.691Z,100843.69
2018-06-19T02:20:20.319Z,100840.77
2018-06-19T02:21:26.250Z,100836.62
2018-06-19T02:22:35.211Z,100848.38
2018-06-19T02:23:41.450Z,100849.64
2018-06-19T02:24:47.701Z,100846.28
2018-06-19T02:25:53.972Z,100851.36
2018-06-19T02:27:00.216Z,100848.34
2018-06-19T02:28:06.443Z,100850.96
2018-06-19T02:29:12.673Z,100854.04
2018-06-19T02:30:18.957Z,100853.82
2018-06-19T02:31:25.240Z,100858.54
2018-06-19T02:32:31.468Z,100856.16
2018-06-19T02:33:37.690Z,100864.22
